sensor_id;sensor_type;location;lat;lon;timestamp;P1;durP1;ratioP1;P2;durP2;ratioP2
35743;SDS011;21867;52.012;4.324;2023-03-21T00:00:58;13.97;;;12.47;;
35743;SDS011;21867;52.012;4.324;2023-03-21T00:03:25;16.40;;;14.10;;
35743;SDS011;21867;52.012;4.324;2023-03-21T00:05:52;13.53;;;12.23;;
35743;SDS011;21867;52.012;4.324;2023-03-21T00:15:00;13.47;;;12.17;;
35743;SDS011;21867;52.012;4.324;2023-03-21T00:17:27;17.17;;;14.00;;
35743;SDS011;21867;52.012;4.324;2023-03-21T00:19:55;15.27;;;12.80;;
35743;SDS011;21867;52.012;4.324;2023-03-21T00:22:22;15.67;;;14.03;;
35743;SDS011;21867;52.012;4.324;2023-03-21T00:27:35;15.00;;;12.20;;
35743;SDS011;21867;52.012;4.324;2023-03-21T00:30:24;16.17;;;13.27;;
35743;SDS011;21867;52.012;4.324;2023-03-21T00:32:51;16.43;;;13.67;;
35743;SDS011;21867;52.012;4.324;2023-03-21T00:35:22;14.43;;;12.93;;
35743;SDS011;21867;52.012;4.324;2023-03-21T00:38:09;15.70;;;12.50;;
35743;SDS011;21867;52.012;4.324;2023-03-21T00:40:38;16.23;;;12.13;;
35743;SDS011;21867;52.012;4.324;2023-03-21T00:43:29;16.43;;;13.03;;
35743;SDS011;21867;52.012;4.324;2023-03-21T00:46:08;14.07;;;10.87;;
35743;SDS011;21867;52.012;4.324;2023-03-21T00:48:35;15.23;;;11.67;;
35743;SDS011;21867;52.012;4.324;2023-03-21T00:51:09;14.90;;;13.13;;
35743;SDS011;21867;52.012;4.324;2023-03-21T01:00:05;15.63;;;12.83;;
35743;SDS011;21867;52.012;4.324;2023-03-21T01:02:35;18.33;;;13.10;;
35743;SDS011;21867;52.012;4.324;2023-03-21T01:05:02;17.77;;;12.17;;
35743;SDS011;21867;52.012;4.324;2023-03-21T01:07:30;14.53;;;11.83;;
35743;SDS011;21867;52.012;4.324;2023-03-21T01:09:58;19.70;;;12.77;;
35743;SDS011;21867;52.012;4.324;2023-03-21T01:15:13;17.27;;;11.33;;
35743;SDS011;21867;52.012;4.324;2023-03-21T01:17:41;16.47;;;13.00;;
35743;SDS011;21867;52.012;4.324;2023-03-21T01:20:10;15.07;;;11.87;;
35743;SDS011;21867;52.012;4.324;2023-03-21T01:32:01;14.77;;;12.43;;
35743;SDS011;21867;52.012;4.324;2023-03-21T01:34:30;15.13;;;10.30;;
35743;SDS011;21867;52.012;4.324;2023-03-21T01:36:57;12.80;;;10.60;;
35743;SDS011;21867;52.012;4.324;2023-03-21T01:39:25;15.27;;;11.67;;
35743;SDS011;21867;52.012;4.324;2023-03-21T01:44:54;17.43;;;11.43;;
35743;SDS011;21867;52.012;4.324;2023-03-21T01:47:39;16.53;;;10.93;;
35743;SDS011;21867;52.012;4.324;2023-03-21T01:50:19;12.83;;;10.70;;
35743;SDS011;21867;52.012;4.324;2023-03-21T01:59:47;12.90;;;10.37;;
35743;SDS011;21867;52.012;4.324;2023-03-21T02:02:44;10.93;;;9.47;;
35743;SDS011;21867;52.012;4.324;2023-03-21T02:05:23;13.83;;;10.03;;
35743;SDS011;21867;52.012;4.324;2023-03-21T02:07:52;11.07;;;9.50;;
35743;SDS011;21867;52.012;4.324;2023-03-21T02:10:21;11.73;;;10.57;;
35743;SDS011;21867;52.012;4.324;2023-03-21T02:15:40;12.37;;;9.70;;
35743;SDS011;21867;52.012;4.324;2023-03-21T02:18:21;15.33;;;9.97;;
35743;SDS011;21867;52.012;4.324;2023-03-21T02:33:18;13.63;;;10.80;;
35743;SDS011;21867;52.012;4.324;2023-03-21T02:35:51;16.50;;;10.70;;
35743;SDS011;21867;52.012;4.324;2023-03-21T02:38:30;14.27;;;10.03;;
35743;SDS011;21867;52.012;4.324;2023-03-21T02:41:02;16.23;;;10.93;;
35743;SDS011;21867;52.012;4.324;2023-03-21T02:43:57;16.17;;;10.73;;
35743;SDS011;21867;52.012;4.324;2023-03-21T02:46:27;15.70;;;10.63;;
35743;SDS011;21867;52.012;4.324;2023-03-21T02:49:08;18.13;;;10.10;;
35743;SDS011;21867;52.012;4.324;2023-03-21T02:51:38;15.50;;;10.23;;
35743;SDS011;21867;52.012;4.324;2023-03-21T03:00:17;15.17;;;10.37;;
35743;SDS011;21867;52.012;4.324;2023-03-21T03:02:45;19.90;;;12.00;;
35743;SDS011;21867;52.012;4.324;2023-03-21T03:05:18;21.43;;;11.23;;
35743;SDS011;21867;52.012;4.324;2023-03-21T03:07:57;16.53;;;11.20;;
35743;SDS011;21867;52.012;4.324;2023-03-21T03:10:32;12.60;;;9.13;;
35743;SDS011;21867;52.012;4.324;2023-03-21T03:13:20;15.77;;;11.23;;
35743;SDS011;21867;52.012;4.324;2023-03-21T03:15:54;17.23;;;10.23;;
35743;SDS011;21867;52.012;4.324;2023-03-21T03:18:27;17.40;;;9.10;;
35743;SDS011;21867;52.012;4.324;2023-03-21T03:20:58;15.80;;;9.27;;
35743;SDS011;21867;52.012;4.324;2023-03-21T03:29:12;19.27;;;9.40;;
35743;SDS011;21867;52.012;4.324;2023-03-21T03:31:42;13.23;;;10.60;;
35743;SDS011;21867;52.012;4.324;2023-03-21T03:34:14;15.57;;;9.87;;
35743;SDS011;21867;52.012;4.324;2023-03-21T03:36:44;10.63;;;9.20;;
35743;SDS011;21867;52.012;4.324;2023-03-21T03:39:14;18.80;;;10.33;;
35743;SDS011;21867;52.012;4.324;2023-03-21T03:42:04;14.10;;;10.30;;
35743;SDS011;21867;52.012;4.324;2023-03-21T03:44:56;16.57;;;9.50;;
35743;SDS011;21867;52.012;4.324;2023-03-21T03:47:26;15.57;;;9.40;;
35743;SDS011;21867;52.012;4.324;2023-03-21T03:50:05;16.27;;;9.33;;
35743;SDS011;21867;52.012;4.324;2023-03-21T03:58:56;15.60;;;9.73;;
35743;SDS011;21867;52.012;4.324;2023-03-21T04:01:40;18.57;;;10.07;;
35743;SDS011;21867;52.012;4.324;2023-03-21T04:04:10;17.87;;;10.10;;
35743;SDS011;21867;52.012;4.324;2023-03-21T04:06:40;16.37;;;11.13;;
35743;SDS011;21867;52.012;4.324;2023-03-21T04:09:08;15.27;;;10.30;;
35743;SDS011;21867;52.012;4.324;2023-03-21T04:14:38;15.30;;;9.53;;
35743;SDS011;21867;52.012;4.324;2023-03-21T04:17:13;21.20;;;10.90;;
35743;SDS011;21867;52.012;4.324;2023-03-21T04:19:42;15.27;;;9.77;;
35743;SDS011;21867;52.012;4.324;2023-03-21T04:29:19;17.87;;;10.60;;
35743;SDS011;21867;52.012;4.324;2023-03-21T04:32:20;14.30;;;10.07;;
35743;SDS011;21867;52.012;4.324;2023-03-21T04:34:56;17.07;;;10.20;;
35743;SDS011;21867;52.012;4.324;2023-03-21T04:37:24;12.87;;;9.70;;
35743;SDS011;21867;52.012;4.324;2023-03-21T04:39:52;13.73;;;8.60;;
35743;SDS011;21867;52.012;4.324;2023-03-21T04:42:20;15.20;;;10.70;;
35743;SDS011;21867;52.012;4.324;2023-03-21T04:44:48;22.87;;;10.13;;
35743;SDS011;21867;52.012;4.324;2023-03-21T04:47:15;15.93;;;9.63;;
35743;SDS011;21867;52.012;4.324;2023-03-21T04:49:43;13.80;;;9.83;;
35743;SDS011;21867;52.012;4.324;2023-03-21T04:58:37;18.30;;;9.97;;
35743;SDS011;21867;52.012;4.324;2023-03-21T05:01:04;16.97;;;9.17;;
35743;SDS011;21867;52.012;4.324;2023-03-21T05:03:32;16.37;;;10.30;;
35743;SDS011;21867;52.012;4.324;2023-03-21T05:05:59;14.37;;;10.43;;
35743;SDS011;21867;52.012;4.324;2023-03-21T05:08:26;17.63;;;10.03;;
35743;SDS011;21867;52.012;4.324;2023-03-21T05:11:01;12.47;;;9.70;;
35743;SDS011;21867;52.012;4.324;2023-03-21T05:13:29;15.80;;;9.00;;
35743;SDS011;21867;52.012;4.324;2023-03-21T05:15:57;14.50;;;10.27;;
35743;SDS011;21867;52.012;4.324;2023-03-21T05:18:25;13.60;;;10.20;;
35743;SDS011;21867;52.012;4.324;2023-03-21T05:30:37;10.77;;;9.60;;
35743;SDS011;21867;52.012;4.324;2023-03-21T05:33:07;17.67;;;10.53;;
35743;SDS011;21867;52.012;4.324;2023-03-21T05:35:34;18.17;;;9.87;;
35743;SDS011;21867;52.012;4.324;2023-03-21T05:38:04;15.20;;;9.77;;
35743;SDS011;21867;52.012;4.324;2023-03-21T05:43:30;16.97;;;9.57;;
35743;SDS011;21867;52.012;4.324;2023-03-21T05:45:58;12.10;;;8.60;;
35743;SDS011;21867;52.012;4.324;2023-03-21T05:48:29;14.23;;;11.03;;
35743;SDS011;21867;52.012;4.324;2023-03-21T05:51:08;17.37;;;10.00;;
35743;SDS011;21867;52.012;4.324;2023-03-21T06:00:01;16.03;;;9.50;;
35743;SDS011;21867;52.012;4.324;2023-03-21T06:02:40;13.60;;;10.07;;
35743;SDS011;21867;52.012;4.324;2023-03-21T06:05:26;14.17;;;9.47;;
35743;SDS011;21867;52.012;4.324;2023-03-21T06:07:54;15.07;;;10.47;;
35743;SDS011;21867;52.012;4.324;2023-03-21T06:10:21;18.67;;;9.77;;
35743;SDS011;21867;52.012;4.324;2023-03-21T06:13:16;16.67;;;9.33;;
35743;SDS011;21867;52.012;4.324;2023-03-21T06:15:43;13.30;;;10.27;;
35743;SDS011;21867;52.012;4.324;2023-03-21T06:18:15;11.97;;;8.47;;
35743;SDS011;21867;52.012;4.324;2023-03-21T06:20:56;14.43;;;8.87;;
35743;SDS011;21867;52.012;4.324;2023-03-21T06:23:23;14.77;;;9.43;;
35743;SDS011;21867;52.012;4.324;2023-03-21T06:35:09;15.80;;;8.93;;
35743;SDS011;21867;52.012;4.324;2023-03-21T06:37:39;17.87;;;10.23;;
35743;SDS011;21867;52.012;4.324;2023-03-21T06:40:08;10.57;;;7.03;;
35743;SDS011;21867;52.012;4.324;2023-03-21T06:42:36;18.30;;;10.67;;
35743;SDS011;21867;52.012;4.324;2023-03-21T06:47:55;11.40;;;9.00;;
35743;SDS011;21867;52.012;4.324;2023-03-21T06:50:30;12.80;;;6.47;;
35743;SDS011;21867;52.012;4.324;2023-03-21T06:52:59;11.03;;;8.40;;
35743;SDS011;21867;52.012;4.324;2023-03-21T06:55:47;17.50;;;9.03;;
35743;SDS011;21867;52.012;4.324;2023-03-21T07:02:08;13.73;;;8.90;;
35743;SDS011;21867;52.012;4.324;2023-03-21T07:04:42;18.27;;;8.17;;
35743;SDS011;21867;52.012;4.324;2023-03-21T07:07:16;13.40;;;8.77;;
35743;SDS011;21867;52.012;4.324;2023-03-21T07:09:45;11.10;;;8.17;;
35743;SDS011;21867;52.012;4.324;2023-03-21T07:12:12;12.20;;;8.07;;
35743;SDS011;21867;52.012;4.324;2023-03-21T07:17:45;10.47;;;7.90;;
35743;SDS011;21867;52.012;4.324;2023-03-21T07:20:13;13.73;;;8.90;;
35743;SDS011;21867;52.012;4.324;2023-03-21T07:22:40;13.33;;;8.30;;
35743;SDS011;21867;52.012;4.324;2023-03-21T07:31:53;9.93;;;7.63;;
35743;SDS011;21867;52.012;4.324;2023-03-21T07:34:21;8.57;;;6.83;;
35743;SDS011;21867;52.012;4.324;2023-03-21T07:36:49;10.33;;;6.37;;
35743;SDS011;21867;52.012;4.324;2023-03-21T07:39:16;12.40;;;7.23;;
35743;SDS011;21867;52.012;4.324;2023-03-21T07:41:43;13.13;;;6.93;;
35743;SDS011;21867;52.012;4.324;2023-03-21T07:47:11;8.27;;;5.83;;
35743;SDS011;21867;52.012;4.324;2023-03-21T07:49:39;14.43;;;7.90;;
35743;SDS011;21867;52.012;4.324;2023-03-21T07:52:06;10.47;;;6.90;;
35743;SDS011;21867;52.012;4.324;2023-03-21T07:54:52;14.37;;;8.63;;
35743;SDS011;21867;52.012;4.324;2023-03-21T08:00:17;12.90;;;7.40;;
35743;SDS011;21867;52.012;4.324;2023-03-21T08:02:46;12.10;;;7.37;;
35743;SDS011;21867;52.012;4.324;2023-03-21T08:05:13;9.87;;;6.53;;
35743;SDS011;21867;52.012;4.324;2023-03-21T08:07:41;10.93;;;7.10;;
35743;SDS011;21867;52.012;4.324;2023-03-21T08:10:09;10.70;;;7.13;;
35743;SDS011;21867;52.012;4.324;2023-03-21T08:12:36;13.03;;;6.27;;
35743;SDS011;21867;52.012;4.324;2023-03-21T08:15:04;13.10;;;6.70;;
35743;SDS011;21867;52.012;4.324;2023-03-21T08:17:31;10.97;;;7.03;;
35743;SDS011;21867;52.012;4.324;2023-03-21T08:20:00;10.77;;;6.00;;
35743;SDS011;21867;52.012;4.324;2023-03-21T08:22:27;12.97;;;7.00;;
35743;SDS011;21867;52.012;4.324;2023-03-21T08:24:55;10.20;;;5.83;;
35743;SDS011;21867;52.012;4.324;2023-03-21T08:27:22;12.27;;;6.53;;
35743;SDS011;21867;52.012;4.324;2023-03-21T08:29:49;12.47;;;5.40;;
35743;SDS011;21867;52.012;4.324;2023-03-21T08:32:17;11.57;;;6.03;;
35743;SDS011;21867;52.012;4.324;2023-03-21T08:34:44;8.13;;;5.77;;
35743;SDS011;21867;52.012;4.324;2023-03-21T08:37:13;7.97;;;5.90;;
35743;SDS011;21867;52.012;4.324;2023-03-21T08:39:40;12.80;;;6.60;;
35743;SDS011;21867;52.012;4.324;2023-03-21T08:42:08;13.63;;;6.87;;
35743;SDS011;21867;52.012;4.324;2023-03-21T08:44:35;9.70;;;7.33;;
35743;SDS011;21867;52.012;4.324;2023-03-21T08:47:02;10.13;;;7.33;;
35743;SDS011;21867;52.012;4.324;2023-03-21T08:49:30;14.17;;;8.53;;
35743;SDS011;21867;52.012;4.324;2023-03-21T08:51:57;14.93;;;8.67;;
35743;SDS011;21867;52.012;4.324;2023-03-21T08:54:26;10.27;;;8.10;;
35743;SDS011;21867;52.012;4.324;2023-03-21T08:56:53;19.07;;;9.60;;
35743;SDS011;21867;52.012;4.324;2023-03-21T08:59:21;11.37;;;7.87;;
35743;SDS011;21867;52.012;4.324;2023-03-21T09:01:48;16.10;;;10.10;;
35743;SDS011;21867;52.012;4.324;2023-03-21T09:04:16;14.83;;;9.20;;
35743;SDS011;21867;52.012;4.324;2023-03-21T09:06:43;14.50;;;9.97;;
35743;SDS011;21867;52.012;4.324;2023-03-21T09:09:11;11.23;;;7.13;;
35743;SDS011;21867;52.012;4.324;2023-03-21T09:11:40;17.07;;;10.27;;
35743;SDS011;21867;52.012;4.324;2023-03-21T09:14:07;14.63;;;9.67;;
35743;SDS011;21867;52.012;4.324;2023-03-21T09:16:35;17.33;;;9.50;;
35743;SDS011;21867;52.012;4.324;2023-03-21T09:19:02;14.60;;;9.50;;
35743;SDS011;21867;52.012;4.324;2023-03-21T09:21:29;13.30;;;8.80;;
35743;SDS011;21867;52.012;4.324;2023-03-21T09:23:57;18.80;;;10.23;;
35743;SDS011;21867;52.012;4.324;2023-03-21T09:26:24;19.17;;;10.37;;
35743;SDS011;21867;52.012;4.324;2023-03-21T09:28:53;17.60;;;10.30;;
35743;SDS011;21867;52.012;4.324;2023-03-21T09:31:20;15.83;;;10.33;;
35743;SDS011;21867;52.012;4.324;2023-03-21T09:33:48;18.67;;;10.37;;
35743;SDS011;21867;52.012;4.324;2023-03-21T09:36:16;19.20;;;11.43;;
35743;SDS011;21867;52.012;4.324;2023-03-21T09:38:43;15.83;;;9.00;;
35743;SDS011;21867;52.012;4.324;2023-03-21T09:41:24;14.83;;;10.27;;
35743;SDS011;21867;52.012;4.324;2023-03-21T09:44:00;17.07;;;9.93;;
35743;SDS011;21867;52.012;4.324;2023-03-21T09:46:31;19.53;;;10.03;;
35743;SDS011;21867;52.012;4.324;2023-03-21T09:49:01;16.23;;;9.60;;
35743;SDS011;21867;52.012;4.324;2023-03-21T09:51:30;12.73;;;9.63;;
35743;SDS011;21867;52.012;4.324;2023-03-21T09:53:59;19.23;;;10.17;;
35743;SDS011;21867;52.012;4.324;2023-03-21T09:56:29;15.23;;;11.07;;
35743;SDS011;21867;52.012;4.324;2023-03-21T09:58:58;15.57;;;10.17;;
35743;SDS011;21867;52.012;4.324;2023-03-21T10:01:26;17.30;;;10.83;;
35743;SDS011;21867;52.012;4.324;2023-03-21T10:03:55;17.63;;;11.10;;
35743;SDS011;21867;52.012;4.324;2023-03-21T10:06:22;13.00;;;10.63;;
35743;SDS011;21867;52.012;4.324;2023-03-21T10:08:50;18.60;;;10.87;;
35743;SDS011;21867;52.012;4.324;2023-03-21T10:11:18;13.90;;;11.80;;
35743;SDS011;21867;52.012;4.324;2023-03-21T10:13:49;15.77;;;10.83;;
35743;SDS011;21867;52.012;4.324;2023-03-21T10:16:19;17.70;;;12.47;;
35743;SDS011;21867;52.012;4.324;2023-03-21T10:18:47;16.53;;;9.93;;
35743;SDS011;21867;52.012;4.324;2023-03-21T10:21:17;17.57;;;11.40;;
35743;SDS011;21867;52.012;4.324;2023-03-21T10:24:07;17.43;;;10.67;;
35743;SDS011;21867;52.012;4.324;2023-03-21T10:26:35;15.63;;;9.43;;
35743;SDS011;21867;52.012;4.324;2023-03-21T10:31:45;15.47;;;10.53;;
35743;SDS011;21867;52.012;4.324;2023-03-21T10:34:14;18.77;;;10.70;;
35743;SDS011;21867;52.012;4.324;2023-03-21T10:36:43;15.90;;;11.10;;
35743;SDS011;21867;52.012;4.324;2023-03-21T10:39:14;16.67;;;11.13;;
35743;SDS011;21867;52.012;4.324;2023-03-21T10:41:44;16.93;;;12.10;;
35743;SDS011;21867;52.012;4.324;2023-03-21T10:44:27;16.27;;;11.70;;
35743;SDS011;21867;52.012;4.324;2023-03-21T10:50:35;17.10;;;10.50;;
35743;SDS011;21867;52.012;4.324;2023-03-21T10:53:05;18.33;;;10.20;;
35743;SDS011;21867;52.012;4.324;2023-03-21T10:55:40;16.53;;;10.80;;
35743;SDS011;21867;52.012;4.324;2023-03-21T10:58:09;14.30;;;10.23;;
35743;SDS011;21867;52.012;4.324;2023-03-21T11:00:40;16.47;;;10.57;;
35743;SDS011;21867;52.012;4.324;2023-03-21T11:06:02;16.47;;;10.80;;
35743;SDS011;21867;52.012;4.324;2023-03-21T11:08:32;16.20;;;11.30;;
35743;SDS011;21867;52.012;4.324;2023-03-21T11:11:04;15.63;;;10.53;;
35743;SDS011;21867;52.012;4.324;2023-03-21T11:13:56;15.83;;;10.77;;
35743;SDS011;21867;52.012;4.324;2023-03-21T11:19:58;14.17;;;8.93;;
35743;SDS011;21867;52.012;4.324;2023-03-21T11:22:28;11.60;;;8.57;;
35743;SDS011;21867;52.012;4.324;2023-03-21T11:24:57;14.13;;;8.03;;
35743;SDS011;21867;52.012;4.324;2023-03-21T11:27:26;16.97;;;10.13;;
35743;SDS011;21867;52.012;4.324;2023-03-21T11:29:53;16.27;;;9.17;;
35743;SDS011;21867;52.012;4.324;2023-03-21T11:32:22;12.73;;;10.90;;
35743;SDS011;21867;52.012;4.324;2023-03-21T11:35:13;11.27;;;10.03;;
35743;SDS011;21867;52.012;4.324;2023-03-21T11:37:46;11.87;;;8.40;;
35743;SDS011;21867;52.012;4.324;2023-03-21T11:40:18;12.73;;;7.00;;
35743;SDS011;21867;52.012;4.324;2023-03-21T11:42:47;10.73;;;7.10;;
35743;SDS011;21867;52.012;4.324;2023-03-21T11:51:57;11.13;;;7.43;;
35743;SDS011;21867;52.012;4.324;2023-03-21T11:54:28;10.93;;;8.33;;
35743;SDS011;21867;52.012;4.324;2023-03-21T11:56:59;10.97;;;7.53;;
35743;SDS011;21867;52.012;4.324;2023-03-21T11:59:30;8.70;;;6.43;;
35743;SDS011;21867;52.012;4.324;2023-03-21T12:02:02;13.40;;;7.20;;
35743;SDS011;21867;52.012;4.324;2023-03-21T12:04:35;14.43;;;8.53;;
35743;SDS011;21867;52.012;4.324;2023-03-21T12:07:08;14.23;;;8.20;;
35743;SDS011;21867;52.012;4.324;2023-03-21T12:09:39;12.27;;;8.20;;
35743;SDS011;21867;52.012;4.324;2023-03-21T12:12:16;12.97;;;6.67;;
35743;SDS011;21867;52.012;4.324;2023-03-21T12:15:05;10.33;;;6.90;;
35743;SDS011;21867;52.012;4.324;2023-03-21T12:17:38;8.07;;;6.40;;
35743;SDS011;21867;52.012;4.324;2023-03-21T12:22:53;10.93;;;7.33;;
35743;SDS011;21867;52.012;4.324;2023-03-21T12:25:25;7.77;;;6.83;;
35743;SDS011;21867;52.012;4.324;2023-03-21T12:27:56;10.50;;;6.97;;
35743;SDS011;21867;52.012;4.324;2023-03-21T12:30:31;9.67;;;5.73;;
35743;SDS011;21867;52.012;4.324;2023-03-21T12:33:03;9.23;;;5.83;;
35743;SDS011;21867;52.012;4.324;2023-03-21T12:35:35;9.50;;;7.90;;
35743;SDS011;21867;52.012;4.324;2023-03-21T12:38:13;7.90;;;7.10;;
35743;SDS011;21867;52.012;4.324;2023-03-21T12:40:54;10.43;;;7.37;;
35743;SDS011;21867;52.012;4.324;2023-03-21T12:43:27;11.00;;;7.97;;
35743;SDS011;21867;52.012;4.324;2023-03-21T12:45:56;10.60;;;7.00;;
35743;SDS011;21867;52.012;4.324;2023-03-21T12:48:27;9.60;;;7.80;;
35743;SDS011;21867;52.012;4.324;2023-03-21T12:50:56;10.23;;;7.03;;
35743;SDS011;21867;52.012;4.324;2023-03-21T12:53:26;9.10;;;6.97;;
35743;SDS011;21867;52.012;4.324;2023-03-21T12:55:56;16.63;;;8.60;;
35743;SDS011;21867;52.012;4.324;2023-03-21T12:58:26;10.97;;;7.73;;
35743;SDS011;21867;52.012;4.324;2023-03-21T13:00:55;11.07;;;6.47;;
35743;SDS011;21867;52.012;4.324;2023-03-21T13:03:23;11.70;;;6.87;;
35743;SDS011;21867;52.012;4.324;2023-03-21T13:06:05;7.67;;;6.53;;
35743;SDS011;21867;52.012;4.324;2023-03-21T13:08:34;9.23;;;6.27;;
35743;SDS011;21867;52.012;4.324;2023-03-21T13:11:04;14.90;;;6.93;;
35743;SDS011;21867;52.012;4.324;2023-03-21T13:13:32;13.50;;;7.70;;
35743;SDS011;21867;52.012;4.324;2023-03-21T13:16:08;12.60;;;6.63;;
35743;SDS011;21867;52.012;4.324;2023-03-21T13:18:47;8.50;;;6.60;;
35743;SDS011;21867;52.012;4.324;2023-03-21T13:21:19;11.03;;;7.37;;
35743;SDS011;21867;52.012;4.324;2023-03-21T13:23:57;9.77;;;6.23;;
35743;SDS011;21867;52.012;4.324;2023-03-21T13:26:35;10.33;;;7.50;;
35743;SDS011;21867;52.012;4.324;2023-03-21T13:29:11;9.07;;;8.03;;
35743;SDS011;21867;52.012;4.324;2023-03-21T13:31:42;8.37;;;6.03;;
35743;SDS011;21867;52.012;4.324;2023-03-21T13:34:19;11.93;;;7.27;;
35743;SDS011;21867;52.012;4.324;2023-03-21T13:36:47;10.90;;;7.80;;
35743;SDS011;21867;52.012;4.324;2023-03-21T13:39:18;13.90;;;7.43;;
35743;SDS011;21867;52.012;4.324;2023-03-21T13:41:47;11.97;;;7.37;;
35743;SDS011;21867;52.012;4.324;2023-03-21T13:44:18;11.13;;;7.37;;
35743;SDS011;21867;52.012;4.324;2023-03-21T13:46:51;9.73;;;6.40;;
35743;SDS011;21867;52.012;4.324;2023-03-21T13:49:30;7.03;;;6.33;;
35743;SDS011;21867;52.012;4.324;2023-03-21T13:51:58;8.27;;;6.40;;
35743;SDS011;21867;52.012;4.324;2023-03-21T13:54:28;11.53;;;6.77;;
35743;SDS011;21867;52.012;4.324;2023-03-21T13:56:58;8.97;;;6.03;;
35743;SDS011;21867;52.012;4.324;2023-03-21T13:59:37;9.27;;;6.87;;
35743;SDS011;21867;52.012;4.324;2023-03-21T14:02:21;8.93;;;7.07;;
35743;SDS011;21867;52.012;4.324;2023-03-21T14:04:52;10.47;;;6.80;;
35743;SDS011;21867;52.012;4.324;2023-03-21T14:07:31;9.07;;;6.83;;
35743;SDS011;21867;52.012;4.324;2023-03-21T14:10:00;10.03;;;5.97;;
35743;SDS011;21867;52.012;4.324;2023-03-21T14:12:33;12.67;;;6.67;;
35743;SDS011;21867;52.012;4.324;2023-03-21T14:15:04;6.93;;;5.77;;
35743;SDS011;21867;52.012;4.324;2023-03-21T14:17:47;10.20;;;7.10;;
35743;SDS011;21867;52.012;4.324;2023-03-21T14:20:17;10.03;;;6.00;;
35743;SDS011;21867;52.012;4.324;2023-03-21T14:22:45;8.10;;;6.17;;
35743;SDS011;21867;52.012;4.324;2023-03-21T14:25:13;11.17;;;6.57;;
35743;SDS011;21867;52.012;4.324;2023-03-21T14:27:42;6.53;;;5.47;;
35743;SDS011;21867;52.012;4.324;2023-03-21T14:30:11;9.27;;;6.07;;
35743;SDS011;21867;52.012;4.324;2023-03-21T14:32:45;8.43;;;5.70;;
35743;SDS011;21867;52.012;4.324;2023-03-21T14:35:13;10.67;;;5.77;;
35743;SDS011;21867;52.012;4.324;2023-03-21T14:37:41;6.60;;;4.90;;
35743;SDS011;21867;52.012;4.324;2023-03-21T14:40:16;7.70;;;4.67;;
35743;SDS011;21867;52.012;4.324;2023-03-21T14:42:46;6.50;;;4.43;;
35743;SDS011;21867;52.012;4.324;2023-03-21T14:45:15;6.40;;;5.03;;
35743;SDS011;21867;52.012;4.324;2023-03-21T14:47:56;6.90;;;4.77;;
35743;SDS011;21867;52.012;4.324;2023-03-21T14:50:24;5.50;;;4.40;;
35743;SDS011;21867;52.012;4.324;2023-03-21T14:52:54;6.87;;;4.47;;
35743;SDS011;21867;52.012;4.324;2023-03-21T14:55:21;9.03;;;4.87;;
35743;SDS011;21867;52.012;4.324;2023-03-21T14:57:50;4.83;;;4.13;;
35743;SDS011;21867;52.012;4.324;2023-03-21T15:00:19;6.87;;;5.30;;
35743;SDS011;21867;52.012;4.324;2023-03-21T15:02:47;6.67;;;4.50;;
35743;SDS011;21867;52.012;4.324;2023-03-21T15:05:17;5.33;;;4.83;;
35743;SDS011;21867;52.012;4.324;2023-03-21T15:07:51;5.00;;;4.23;;
35743;SDS011;21867;52.012;4.324;2023-03-21T15:10:18;8.27;;;4.60;;
35743;SDS011;21867;52.012;4.324;2023-03-21T15:12:51;7.13;;;4.70;;
35743;SDS011;21867;52.012;4.324;2023-03-21T15:15:19;7.10;;;4.10;;
35743;SDS011;21867;52.012;4.324;2023-03-21T15:17:47;12.57;;;5.73;;
35743;SDS011;21867;52.012;4.324;2023-03-21T15:20:15;6.50;;;3.87;;
35743;SDS011;21867;52.012;4.324;2023-03-21T15:22:43;5.83;;;4.00;;
35743;SDS011;21867;52.012;4.324;2023-03-21T15:25:12;6.30;;;3.97;;
35743;SDS011;21867;52.012;4.324;2023-03-21T15:27:43;4.80;;;3.80;;
35743;SDS011;21867;52.012;4.324;2023-03-21T15:30:19;4.07;;;3.67;;
35743;SDS011;21867;52.012;4.324;2023-03-21T15:32:47;6.10;;;4.03;;
35743;SDS011;21867;52.012;4.324;2023-03-21T15:35:15;6.50;;;3.90;;
35743;SDS011;21867;52.012;4.324;2023-03-21T15:37:43;5.07;;;3.60;;
35743;SDS011;21867;52.012;4.324;2023-03-21T15:40:18;6.67;;;3.30;;
35743;SDS011;21867;52.012;4.324;2023-03-21T15:42:46;8.43;;;4.40;;
35743;SDS011;21867;52.012;4.324;2023-03-21T15:45:16;4.97;;;3.53;;
35743;SDS011;21867;52.012;4.324;2023-03-21T15:47:53;5.33;;;3.47;;
35743;SDS011;21867;52.012;4.324;2023-03-21T15:50:24;3.90;;;3.10;;
35743;SDS011;21867;52.012;4.324;2023-03-21T15:52:53;5.00;;;3.90;;
35743;SDS011;21867;52.012;4.324;2023-03-21T15:55:21;4.37;;;3.97;;
35743;SDS011;21867;52.012;4.324;2023-03-21T15:57:51;6.33;;;4.13;;
35743;SDS011;21867;52.012;4.324;2023-03-21T16:00:24;4.33;;;3.93;;
35743;SDS011;21867;52.012;4.324;2023-03-21T16:02:55;4.90;;;4.17;;
35743;SDS011;21867;52.012;4.324;2023-03-21T16:05:26;6.27;;;3.90;;
35743;SDS011;21867;52.012;4.324;2023-03-21T16:07:56;6.53;;;4.73;;
35743;SDS011;21867;52.012;4.324;2023-03-21T16:10:28;4.07;;;3.60;;
35743;SDS011;21867;52.012;4.324;2023-03-21T16:12:56;5.10;;;3.83;;
35743;SDS011;21867;52.012;4.324;2023-03-21T16:15:33;6.83;;;3.73;;
35743;SDS011;21867;52.012;4.324;2023-03-21T16:18:14;6.03;;;3.10;;
35743;SDS011;21867;52.012;4.324;2023-03-21T16:20:43;8.03;;;2.53;;
35743;SDS011;21867;52.012;4.324;2023-03-21T16:23:11;10.73;;;3.13;;
35743;SDS011;21867;52.012;4.324;2023-03-21T16:25:43;6.40;;;2.60;;
35743;SDS011;21867;52.012;4.324;2023-03-21T16:28:12;2.80;;;2.10;;
35743;SDS011;21867;52.012;4.324;2023-03-21T16:30:43;6.30;;;2.27;;
35743;SDS011;21867;52.012;4.324;2023-03-21T16:33:12;3.73;;;2.00;;
35743;SDS011;21867;52.012;4.324;2023-03-21T16:35:44;2.30;;;2.10;;
35743;SDS011;21867;52.012;4.324;2023-03-21T16:38:12;4.83;;;2.33;;
35743;SDS011;21867;52.012;4.324;2023-03-21T16:40:43;7.87;;;2.53;;
35743;SDS011;21867;52.012;4.324;2023-03-21T16:43:11;5.50;;;2.00;;
35743;SDS011;21867;52.012;4.324;2023-03-21T16:45:39;5.73;;;2.27;;
35743;SDS011;21867;52.012;4.324;2023-03-21T16:48:12;6.73;;;2.13;;
35743;SDS011;21867;52.012;4.324;2023-03-21T16:51:03;4.37;;;2.10;;
35743;SDS011;21867;52.012;4.324;2023-03-21T16:53:35;3.90;;;2.40;;
35743;SDS011;21867;52.012;4.324;2023-03-21T16:56:12;2.87;;;1.90;;
35743;SDS011;21867;52.012;4.324;2023-03-21T16:58:41;4.63;;;1.83;;
35743;SDS011;21867;52.012;4.324;2023-03-21T17:01:12;5.70;;;2.30;;
35743;SDS011;21867;52.012;4.324;2023-03-21T17:03:39;6.87;;;3.07;;
35743;SDS011;21867;52.012;4.324;2023-03-21T17:06:12;5.43;;;2.23;;
35743;SDS011;21867;52.012;4.324;2023-03-21T17:08:40;6.83;;;2.17;;
35743;SDS011;21867;52.012;4.324;2023-03-21T17:11:08;2.77;;;2.37;;
35743;SDS011;21867;52.012;4.324;2023-03-21T17:13:35;4.17;;;2.10;;
35743;SDS011;21867;52.012;4.324;2023-03-21T17:16:02;3.70;;;2.30;;
35743;SDS011;21867;52.012;4.324;2023-03-21T17:18:30;3.67;;;2.27;;
35743;SDS011;21867;52.012;4.324;2023-03-21T17:20:57;5.07;;;2.30;;
35743;SDS011;21867;52.012;4.324;2023-03-21T17:23:26;4.10;;;2.03;;
35743;SDS011;21867;52.012;4.324;2023-03-21T17:25:53;9.67;;;2.20;;
35743;SDS011;21867;52.012;4.324;2023-03-21T17:28:21;7.60;;;2.57;;
35743;SDS011;21867;52.012;4.324;2023-03-21T17:30:48;4.90;;;2.27;;
35743;SDS011;21867;52.012;4.324;2023-03-21T17:33:15;8.43;;;2.47;;
35743;SDS011;21867;52.012;4.324;2023-03-21T17:35:43;10.97;;;3.27;;
35743;SDS011;21867;52.012;4.324;2023-03-21T17:38:11;9.47;;;3.07;;